Time,TemperatureF,DewpointF,PressureIn,WindDirection,WindDirectionDegrees,WindSpeedMPH,WindSpeedGustMPH,Humidity,HourlyPrecipIn,Conditions,Clouds,dailyrainin,SolarRadiationWatts/m^2,SoftwareType,DateUTC
2013-08-17 00:01:00,62.0,35.0,-100.00,ESE,103,6.0,7.0,37,0.00,,,0.00,0.000000,,2013-08-17 06:01:00,
2013-08-17 00:12:00,62.0,35.0,-100.00,ESE,103,6.0,7.0,37,0.00,,,0.00,0.000000,,2013-08-17 06:12:00,
2013-08-17 00:42:00,58.0,37.0,-100.00,NNE,21,2.0,7.0,45,0.00,,,0.00,0.000000,,2013-08-17 06:42:00,
2013-08-17 00:52:00,58.0,37.0,-100.00,NNE,21,2.0,7.0,45,0.00,,,0.00,0.000000,,2013-08-17 06:52:00,
2013-08-17 01:01:00,58.0,37.0,-100.00,NNE,21,2.0,7.0,45,0.00,,,0.00,0.000000,,2013-08-17 07:01:00,
2013-08-17 01:11:00,58.0,37.0,-100.00,NNE,21,2.0,7.0,45,0.00,,,0.00,0.000000,,2013-08-17 07:11:00,
2013-08-17 01:42:00,57.0,37.0,-100.00,East,100,1.0,4.0,47,0.00,,,0.00,0.000000,,2013-08-17 07:42:00,
2013-08-17 01:52:00,57.0,37.0,-100.00,East,100,1.0,4.0,47,0.00,,,0.00,0.000000,,2013-08-17 07:52:00,
2013-08-17 02:01:00,57.0,37.0,-100.00,East,100,1.0,4.0,47,0.00,,,0.00,0.000000,,2013-08-17 08:01:00,
2013-08-17 02:11:00,57.0,37.0,-100.00,East,100,1.0,4.0,47,0.00,,,0.00,0.000000,,2013-08-17 08:11:00,
2013-08-17 02:42:00,55.0,34.0,-100.00,East,83,0.0,6.0,45,0.00,,,0.00,0.000000,,2013-08-17 08:42:00,
2013-08-17 02:52:00,55.0,34.0,-100.00,East,83,0.0,6.0,45,0.00,,,0.00,0.000000,,2013-08-17 08:52:00,
2013-08-17 03:01:00,55.0,34.0,-100.00,East,83,0.0,6.0,45,0.00,,,0.00,0.000000,,2013-08-17 09:01:00,
2013-08-17 03:11:00,55.0,34.0,-100.00,East,83,0.0,6.0,45,0.00,,,0.00,0.000000,,2013-08-17 09:11:00,
2013-08-17 03:43:00,52.0,36.0,-100.00,NNE,31,1.0,3.0,55,0.00,,,0.00,0.000000,,2013-08-17 09:43:00,
2013-08-17 03:53:00,52.0,36.0,-100.00,NNE,31,1.0,3.0,55,0.00,,,0.00,0.000000,,2013-08-17 09:53:00,
2013-08-17 04:03:00,52.0,36.0,-100.00,NNE,31,1.0,3.0,55,0.00,,,0.00,0.000000,,2013-08-17 10:03:00,
2013-08-17 04:12:00,52.0,36.0,-100.00,NNE,31,1.0,3.0,55,0.00,,,0.00,0.000000,,2013-08-17 10:12:00,
2013-08-17 04:42:00,51.0,38.0,-100.00,SW,217,2.0,4.0,60,0.00,,,0.00,0.000000,,2013-08-17 10:42:00,
2013-08-17 04:52:00,51.0,38.0,-100.00,SW,217,2.0,4.0,60,0.00,,,0.00,0.000000,,2013-08-17 10:52:00,
2013-08-17 05:02:00,51.0,38.0,-100.00,SW,217,2.0,4.0,60,0.00,,,0.00,0.000000,,2013-08-17 11:02:00,
2013-08-17 05:11:00,51.0,38.0,-100.00,SW,217,2.0,4.0,60,0.00,,,0.00,0.000000,,2013-08-17 11:11:00,
2013-08-17 05:42:00,50.0,36.0,-100.00,North,1,1.0,5.0,59,0.00,,,0.00,0.000000,,2013-08-17 11:42:00,
2013-08-17 05:52:00,50.0,36.0,-100.00,North,1,1.0,5.0,59,0.00,,,0.00,0.000000,,2013-08-17 11:52:00,
2013-08-17 06:01:00,50.0,36.0,-100.00,North,1,1.0,5.0,59,0.00,,,0.00,0.000000,,2013-08-17 12:01:00,
2013-08-17 06:11:00,50.0,36.0,-100.00,North,1,1.0,5.0,59,0.00,,,0.00,0.000000,,2013-08-17 12:11:00,
2013-08-17 07:11:00,47.0,41.0,-100.00,ESE,107,2.0,5.0,78,0.00,,,0.00,0.000000,,2013-08-17 13:11:00,
2013-08-17 07:42:00,46.0,39.0,-100.00,ENE,62,1.0,4.0,75,0.00,,,-99.99,9.000000,,2013-08-17 13:42:00,
2013-08-17 08:11:00,46.0,39.0,-100.00,ENE,62,1.0,4.0,75,0.00,,,-99.99,9.000000,,2013-08-17 14:11:00,
2013-08-17 08:42:00,53.0,44.0,-100.00,South,174,1.0,4.0,71,0.00,,,0.00,108.000000,,2013-08-17 14:42:00,
2013-08-17 08:52:00,53.0,44.0,-100.00,South,174,1.0,4.0,71,0.00,,,0.00,108.000000,,2013-08-17 14:52:00,
2013-08-17 09:01:00,53.0,44.0,-100.00,South,174,1.0,4.0,71,0.00,,,0.00,108.000000,,2013-08-17 15:01:00,
2013-08-17 09:11:00,53.0,44.0,-100.00,South,174,1.0,4.0,71,0.00,,,0.00,108.000000,,2013-08-17 15:11:00,
2013-08-17 09:44:00,61.0,44.0,-100.00,WSW,245,2.0,4.0,53,0.00,,,0.00,363.000000,,2013-08-17 15:44:00,
2013-08-17 09:53:00,61.0,44.0,-100.00,WSW,245,2.0,4.0,53,0.00,,,0.00,363.000000,,2013-08-17 15:53:00,
2013-08-17 10:03:00,61.0,44.0,-100.00,WSW,245,2.0,4.0,53,0.00,,,0.00,363.000000,,2013-08-17 16:03:00,
2013-08-17 10:12:00,61.0,44.0,-100.00,WSW,245,2.0,4.0,53,0.00,,,0.00,363.000000,,2013-08-17 16:12:00,
2013-08-17 10:42:00,69.0,47.0,-100.00,West,268,2.0,5.0,46,0.00,,,0.00,572.000000,,2013-08-17 16:42:00,
2013-08-17 10:53:00,69.0,47.0,-100.00,West,268,2.0,5.0,46,0.00,,,0.00,572.000000,,2013-08-17 16:53:00,
2013-08-17 11:02:00,69.0,47.0,-100.00,West,268,2.0,5.0,46,0.00,,,0.00,572.000000,,2013-08-17 17:02:00,
2013-08-17 11:12:00,69.0,47.0,-100.00,West,268,2.0,5.0,46,0.00,,,0.00,572.000000,,2013-08-17 17:12:00,
2013-08-17 11:42:00,74.0,47.0,-100.00,WSW,240,3.0,6.0,38,0.00,,,0.00,753.000000,,2013-08-17 17:42:00,
2013-08-17 11:52:00,74.0,47.0,-100.00,WSW,240,3.0,6.0,38,0.00,,,0.00,753.000000,,2013-08-17 17:52:00,
2013-08-17 12:02:00,74.0,47.0,-100.00,WSW,240,3.0,6.0,38,0.00,,,0.00,753.000000,,2013-08-17 18:02:00,
2013-08-17 12:11:00,74.0,47.0,-100.00,WSW,240,3.0,6.0,38,0.00,,,0.00,753.000000,,2013-08-17 18:11:00,
2013-08-17 12:42:00,78.0,47.0,-100.00,West,266,4.0,7.0,33,0.00,,,0.00,887.000000,,2013-08-17 18:42:00,
2013-08-17 12:52:00,78.0,47.0,-100.00,West,266,4.0,7.0,33,0.00,,,0.00,887.000000,,2013-08-17 18:52:00,
2013-08-17 13:01:00,78.0,47.0,-100.00,West,266,4.0,7.0,33,0.00,,,0.00,887.000000,,2013-08-17 19:01:00,
2013-08-17 13:11:00,78.0,47.0,-100.00,West,266,4.0,7.0,33,0.00,,,0.00,887.000000,,2013-08-17 19:11:00,
2013-08-17 13:42:00,82.0,43.0,-100.00,WNW,290,4.0,12.0,25,0.00,,,0.00,947.000000,,2013-08-17 19:42:00,
2013-08-17 13:52:00,82.0,43.0,-100.00,WNW,290,4.0,12.0,25,0.00,,,0.00,947.000000,,2013-08-17 19:52:00,
2013-08-17 14:02:00,82.0,43.0,-100.00,WNW,290,4.0,12.0,25,0.00,,,0.00,947.000000,,2013-08-17 20:02:00,
2013-08-17 14:11:00,82.0,43.0,-100.00,WNW,290,4.0,12.0,25,0.00,,,0.00,947.000000,,2013-08-17 20:11:00,
2013-08-17 14:42:00,84.0,37.0,-100.00,NW,306,7.0,15.0,19,0.00,,,0.00,684.000000,,2013-08-17 20:42:00,
2013-08-17 14:52:00,84.0,37.0,-100.00,NW,306,7.0,15.0,19,0.00,,,0.00,684.000000,,2013-08-17 20:52:00,
2013-08-17 15:01:00,84.0,37.0,-100.00,NW,306,7.0,15.0,19,0.00,,,0.00,684.000000,,2013-08-17 21:01:00,
2013-08-17 15:11:00,84.0,37.0,-100.00,NW,306,7.0,15.0,19,0.00,,,0.00,684.000000,,2013-08-17 21:11:00,
2013-08-17 15:42:00,86.0,36.0,-100.00,SW,230,11.0,20.0,17,0.00,,,0.00,767.000000,,2013-08-17 21:42:00,
2013-08-17 15:53:00,86.0,36.0,-100.00,SW,230,11.0,20.0,17,0.00,,,0.00,767.000000,,2013-08-17 21:53:00,
2013-08-17 16:03:00,86.0,36.0,-100.00,SW,230,11.0,20.0,17,0.00,,,0.00,767.000000,,2013-08-17 22:03:00,
2013-08-17 16:12:00,86.0,36.0,-100.00,SW,230,11.0,20.0,17,0.00,,,0.00,767.000000,,2013-08-17 22:12:00,
2013-08-17 16:42:00,83.0,35.0,-100.00,West,259,5.0,18.0,18,0.00,,,0.00,580.000000,,2013-08-17 22:42:00,
2013-08-17 16:52:00,83.0,35.0,-100.00,West,259,5.0,18.0,18,0.00,,,0.00,580.000000,,2013-08-17 22:52:00,
2013-08-17 17:02:00,83.0,35.0,-100.00,West,259,5.0,18.0,18,0.00,,,0.00,580.000000,,2013-08-17 23:02:00,
2013-08-17 17:11:00,83.0,35.0,-100.00,West,259,5.0,18.0,18,0.00,,,0.00,580.000000,,2013-08-17 23:11:00,
2013-08-17 17:42:00,83.0,40.0,-100.00,WNW,299,6.0,13.0,22,0.00,,,0.00,402.000000,,2013-08-17 23:42:00,
2013-08-17 17:52:00,83.0,40.0,-100.00,WNW,299,6.0,13.0,22,0.00,,,0.00,402.000000,,2013-08-17 23:52:00,
2013-08-17 18:01:00,83.0,40.0,-100.00,WNW,299,6.0,13.0,22,0.00,,,0.00,402.000000,,2013-08-18 00:01:00,
2013-08-17 18:11:00,83.0,40.0,-100.00,WNW,299,6.0,13.0,22,0.00,,,0.00,402.000000,,2013-08-18 00:11:00,
2013-08-17 18:42:00,84.0,41.0,-100.00,WNW,301,6.0,11.0,22,0.00,,,0.00,409.000000,,2013-08-18 00:42:00,
2013-08-17 18:52:00,84.0,41.0,-100.00,WNW,301,6.0,11.0,22,0.00,,,0.00,409.000000,,2013-08-18 00:52:00,
2013-08-17 19:01:00,84.0,41.0,-100.00,WNW,301,6.0,11.0,22,0.00,,,0.00,409.000000,,2013-08-18 01:01:00,
2013-08-17 19:11:00,84.0,41.0,-100.00,WNW,301,6.0,11.0,22,0.00,,,0.00,409.000000,,2013-08-18 01:11:00,
2013-08-17 19:42:00,81.0,44.0,-100.00,NNW,333,3.0,10.0,27,0.00,,,0.00,251.000000,,2013-08-18 01:42:00,
2013-08-17 19:52:00,81.0,44.0,-100.00,NNW,333,3.0,10.0,27,0.00,,,0.00,251.000000,,2013-08-18 01:52:00,
2013-08-17 20:02:00,81.0,44.0,-100.00,NNW,333,3.0,10.0,27,0.00,,,0.00,251.000000,,2013-08-18 02:02:00,
2013-08-17 20:11:00,81.0,44.0,-100.00,NNW,333,3.0,10.0,27,0.00,,,0.00,251.000000,,2013-08-18 02:11:00,
2013-08-17 20:42:00,76.0,41.0,-100.00,NNE,15,2.0,4.0,29,0.00,,,0.00,76.000000,,2013-08-18 02:42:00,
2013-08-17 20:52:00,76.0,41.0,-100.00,NNE,15,2.0,4.0,29,0.00,,,0.00,76.000000,,2013-08-18 02:52:00,
2013-08-17 21:02:00,76.0,41.0,-100.00,NNE,15,2.0,4.0,29,0.00,,,0.00,76.000000,,2013-08-18 03:02:00,
2013-08-17 21:11:00,76.0,41.0,-100.00,NNE,15,2.0,4.0,29,0.00,,,0.00,76.000000,,2013-08-18 03:11:00,
2013-08-17 21:43:00,69.0,39.0,-100.00,NE,41,2.0,5.0,33,0.00,,,0.00,3.000000,,2013-08-18 03:43:00,
2013-08-17 21:53:00,69.0,39.0,-100.00,NE,41,2.0,5.0,33,0.00,,,0.00,3.000000,,2013-08-18 03:53:00,
2013-08-17 22:02:00,-999.0,-99.9,-100.00,NE,41,2.0,5.0,-999,0.00,,,0.00,3.000000,,2013-08-18 04:02:00,
2013-08-17 22:12:00,69.0,39.0,-100.00,NE,41,2.0,5.0,33,0.00,,,0.00,3.000000,,2013-08-18 04:12:00,
2013-08-17 22:42:00,66.0,42.0,-100.00,NW,307,3.0,7.0,42,0.00,,,0.00,0.000000,,2013-08-18 04:42:00,
2013-08-17 22:53:00,66.0,42.0,-100.00,NW,307,3.0,7.0,42,0.00,,,0.00,0.000000,,2013-08-18 04:53:00,
2013-08-17 23:02:00,66.0,42.0,-100.00,NW,307,3.0,7.0,42,0.00,,,0.00,0.000000,,2013-08-18 05:02:00,
2013-08-17 23:12:00,66.0,42.0,-100.00,NW,307,3.0,7.0,42,0.00,,,0.00,0.000000,,2013-08-18 05:12:00,
2013-08-17 23:42:00,64.0,41.0,-100.00,SSE,166,4.0,5.0,43,0.00,,,0.00,0.000000,,2013-08-18 05:42:00,
2013-08-17 23:52:00,64.0,41.0,-100.00,SSE,166,4.0,5.0,43,0.00,,,0.00,0.000000,,2013-08-18 05:52:00,